createdAt,value
2022-09-14T00:01:08.489Z,3.40
2022-09-14T00:03:41.226Z,2.50
2022-09-14T00:06:11.096Z,2.63
2022-09-14T00:08:40.089Z,3.10
2022-09-14T00:11:08.482Z,2.53
2022-09-14T00:13:36.274Z,2.73
2022-09-14T00:16:04.827Z,2.70
2022-09-14T00:18:32.704Z,2.83
2022-09-14T00:21:01.401Z,2.60
2022-09-14T00:23:29.011Z,2.40
2022-09-14T00:26:05.492Z,2.57
2022-09-14T00:28:38.582Z,2.77
2022-09-14T00:31:07.265Z,2.27
2022-09-14T00:33:36.061Z,2.60
2022-09-14T00:36:08.632Z,2.93
2022-09-14T00:38:36.608Z,2.50
2022-09-14T00:41:06.711Z,2.60
2022-09-14T00:43:34.580Z,2.47
2022-09-14T00:46:03.001Z,2.30
2022-09-14T00:48:30.740Z,2.17
2022-09-14T00:50:58.324Z,2.50
2022-09-14T00:53:27.056Z,2.53
2022-09-14T00:55:55.063Z,2.80
2022-09-14T00:58:24.089Z,2.60
2022-09-14T01:00:51.732Z,2.90
2022-09-14T01:03:20.538Z,2.80
2022-09-14T01:05:55.229Z,2.97
2022-09-14T01:08:38.457Z,2.80
2022-09-14T01:11:12.870Z,2.87
2022-09-14T01:13:45.465Z,3.13
2022-09-14T01:16:16.663Z,3.70
2022-09-14T01:18:46.454Z,3.03
2022-09-14T01:21:15.826Z,3.83
2022-09-14T01:23:49.405Z,3.40
2022-09-14T01:26:48.360Z,4.00
2022-09-14T01:29:17.626Z,3.93
2022-09-14T01:31:55.512Z,3.63
2022-09-14T01:34:27.089Z,3.03
2022-09-14T01:36:57.021Z,3.33
2022-09-14T01:39:24.652Z,2.97
2022-09-14T01:41:52.416Z,3.07
2022-09-14T01:44:23.425Z,2.77
2022-09-14T01:46:53.076Z,3.07
2022-09-14T01:49:22.125Z,2.50
2022-09-14T01:51:50.707Z,2.90
2022-09-14T01:54:21.495Z,2.80
2022-09-14T01:56:50.881Z,2.90
2022-09-14T01:59:21.786Z,3.00
2022-09-14T02:01:51.590Z,2.93
2022-09-14T02:04:23.509Z,2.93
2022-09-14T02:06:51.095Z,3.17
2022-09-14T02:09:21.256Z,3.07
2022-09-14T02:11:48.856Z,2.70
2022-09-14T02:14:16.563Z,2.80
2022-09-14T02:16:46.510Z,2.60
2022-09-14T03:14:56.815Z,3.23
2022-09-14T03:17:24.722Z,3.37
2022-09-14T03:19:52.674Z,3.37
2022-09-14T03:22:45.247Z,3.30
2022-09-14T03:25:13.125Z,3.40
2022-09-14T03:27:41.121Z,3.20
2022-09-14T03:30:11.937Z,3.63
2022-09-14T03:32:39.807Z,3.20
2022-09-14T03:35:08.804Z,3.07
2022-09-14T03:37:38.486Z,3.40
2022-09-14T03:40:07.107Z,3.37
2022-09-14T03:42:35.064Z,3.17
2022-09-14T03:45:02.977Z,3.90
2022-09-14T03:47:32.305Z,3.30
2022-09-14T03:50:00.068Z,3.43
2022-09-14T03:52:27.976Z,4.00
2022-09-14T03:54:55.782Z,3.40
2022-09-14T03:57:23.674Z,3.60
2022-09-14T03:59:51.574Z,3.20
2022-09-14T04:02:19.916Z,4.00
2022-09-14T04:04:52.197Z,3.40
2022-09-14T04:07:20.231Z,3.30
2022-09-14T04:09:48.065Z,3.40
2022-09-14T04:12:15.965Z,3.17
2022-09-14T04:14:43.826Z,3.77
2022-09-14T04:17:11.730Z,3.40
2022-09-14T04:19:41.537Z,3.43
2022-09-14T04:22:11.024Z,3.70
2022-09-14T04:24:39.141Z,3.50
2022-09-14T04:27:07.435Z,3.33
2022-09-14T04:29:35.257Z,3.17
2022-09-14T04:32:03.607Z,3.57
2022-09-14T04:34:31.480Z,2.93
2022-09-14T04:37:00.595Z,3.63
2022-09-14T04:39:30.326Z,3.50
2022-09-14T04:41:58.115Z,3.90
2022-09-14T04:44:29.350Z,3.47
2022-09-14T04:46:57.186Z,3.60
2022-09-14T04:49:25.102Z,3.60
2022-09-14T04:51:54.081Z,3.67
2022-09-14T04:54:22.168Z,3.50
2022-09-14T04:56:51.582Z,4.27
2022-09-14T04:59:32.423Z,3.90
2022-09-14T05:02:04.700Z,3.93
2022-09-14T05:04:33.822Z,4.00
2022-09-14T05:07:02.044Z,3.50
2022-09-14T05:09:32.030Z,3.90
2022-09-14T05:12:01.375Z,5.13
2022-09-14T05:14:29.331Z,4.70
2022-09-14T05:17:01.415Z,3.73
2022-09-14T05:19:29.654Z,4.23
2022-09-14T05:22:01.029Z,3.87
2022-09-14T05:24:39.528Z,3.70
2022-09-14T05:27:11.697Z,3.80
2022-09-14T05:29:40.313Z,3.57
2022-09-14T05:32:08.454Z,6.37
2022-09-14T05:34:43.403Z,3.90
2022-09-14T05:37:17.049Z,4.10
2022-09-14T05:39:47.446Z,3.47
2022-09-14T05:42:16.812Z,3.93
2022-09-14T05:44:44.656Z,4.10
2022-09-14T05:47:12.322Z,4.53
2022-09-14T05:49:41.713Z,4.53
2022-09-14T05:52:09.471Z,4.13
2022-09-14T05:54:37.208Z,3.90
2022-09-14T05:57:05.163Z,3.83
2022-09-14T05:59:34.575Z,3.90
2022-09-14T06:02:02.650Z,3.93
2022-09-14T06:04:30.478Z,4.43
2022-09-14T06:07:17.438Z,4.53
2022-09-14T06:09:46.100Z,4.63
2022-09-14T06:12:14.720Z,4.10
2022-09-14T06:14:43.900Z,4.33
2022-09-14T06:17:11.711Z,4.17
2022-09-14T06:19:39.672Z,4.30
2022-09-14T06:22:07.532Z,4.10
2022-09-14T06:24:35.732Z,4.50
2022-09-14T06:29:37.625Z,4.30
2022-09-14T06:32:07.756Z,5.07
2022-09-14T06:34:35.539Z,5.50
2022-09-14T06:37:03.283Z,7.67
2022-09-14T06:39:32.916Z,4.37
2022-09-14T06:42:00.811Z,5.97
2022-09-14T06:44:28.741Z,5.83
2022-09-14T06:46:56.504Z,4.77
2022-09-14T06:49:25.811Z,5.03
2022-09-14T06:51:56.932Z,4.80
2022-09-14T06:54:25.503Z,5.00
2022-09-14T06:56:54.407Z,5.70
2022-09-14T06:59:24.167Z,5.97
2022-09-14T07:01:53.036Z,6.50
2022-09-14T07:04:21.810Z,5.20
2022-09-14T07:06:59.419Z,5.07
2022-09-14T07:09:31.866Z,19.37
2022-09-14T07:12:09.017Z,6.50
2022-09-14T07:14:38.500Z,5.73
2022-09-14T07:17:06.958Z,6.00
2022-09-14T07:19:35.185Z,5.07
2022-09-14T07:22:05.171Z,5.20
2022-09-14T07:24:33.681Z,4.90
2022-09-14T07:27:01.795Z,5.17
2022-09-14T07:29:30.113Z,5.10
2022-09-14T07:31:57.917Z,5.47
2022-09-14T07:34:25.781Z,4.80
2022-09-14T07:36:53.555Z,4.87
2022-09-14T07:39:22.711Z,4.70
2022-09-14T07:41:50.385Z,4.70
2022-09-14T07:44:18.451Z,12.23
2022-09-14T07:46:46.534Z,6.63
2022-09-14T07:49:14.265Z,4.80
2022-09-14T07:51:42.028Z,5.10
2022-09-14T07:54:11.661Z,5.00
2022-09-14T07:56:40.819Z,5.23
2022-09-14T07:59:34.442Z,5.03
2022-09-14T08:02:06.937Z,4.80
2022-09-14T08:04:37.844Z,4.90
2022-09-14T08:07:09.408Z,5.23
2022-09-14T08:09:37.400Z,4.60
2022-09-14T08:12:17.990Z,4.50
2022-09-14T08:14:51.273Z,5.33
2022-09-14T08:17:25.250Z,4.03
2022-09-14T08:19:53.246Z,4.07
2022-09-14T08:22:21.118Z,3.37
2022-09-14T08:24:48.956Z,4.37
2022-09-14T08:27:18.013Z,3.87
2022-09-14T08:29:45.706Z,3.97
2022-09-14T08:32:13.717Z,4.10
2022-09-14T08:34:42.305Z,3.83
2022-09-14T08:37:10.755Z,3.70
2022-09-14T08:39:38.635Z,3.53
2022-09-14T08:42:07.102Z,3.40
2022-09-14T08:44:41.237Z,3.40
2022-09-14T08:47:12.156Z,3.30
2022-09-14T08:49:47.010Z,3.80
2022-09-14T08:52:24.156Z,4.13
2022-09-14T08:54:55.318Z,4.63
2022-09-14T08:57:27.263Z,9.17
2022-09-14T09:00:02.436Z,4.43
2022-09-14T09:02:46.484Z,3.60
2022-09-14T09:05:25.035Z,3.37
2022-09-14T09:07:55.296Z,2.87
2022-09-14T09:10:23.875Z,3.20
2022-09-14T09:12:53.578Z,3.37
2022-09-14T09:15:24.155Z,3.50
2022-09-14T09:17:55.223Z,2.80
2022-09-14T09:20:30.552Z,2.50
2022-09-14T09:23:07.025Z,2.80
2022-09-14T09:25:42.571Z,2.50
2022-09-14T09:28:11.618Z,2.90
2022-09-14T09:30:41.585Z,2.93
2022-09-14T09:33:10.690Z,2.90
2022-09-14T09:35:38.583Z,2.80
2022-09-14T09:38:10.825Z,2.60
2022-09-14T09:40:39.721Z,3.10
2022-09-14T09:43:09.214Z,3.20
2022-09-14T09:46:02.980Z,4.47
2022-09-14T09:48:33.640Z,3.40
2022-09-14T09:51:05.307Z,3.57
2022-09-14T09:53:34.506Z,3.70
2022-09-14T09:56:02.639Z,4.17
2022-09-14T09:58:32.583Z,4.60
2022-09-14T10:01:02.746Z,3.60
2022-09-14T10:03:35.855Z,4.10
2022-09-14T10:06:05.846Z,3.90
2022-09-14T10:08:35.005Z,3.70
2022-09-14T10:11:03.963Z,8.23
2022-09-14T10:13:37.691Z,3.70
2022-09-14T10:16:17.952Z,3.63
2022-09-14T10:18:48.995Z,3.70
2022-09-14T10:21:17.468Z,3.77
2022-09-14T10:23:45.242Z,3.70
2022-09-14T10:26:22.893Z,3.30
2022-09-14T10:28:51.760Z,2.83
2022-09-14T10:31:24.927Z,2.90
2022-09-14T10:33:54.346Z,2.90
2022-09-14T10:36:25.723Z,2.40
2022-09-14T10:38:55.263Z,2.80
2022-09-14T10:41:26.241Z,2.50
2022-09-14T10:44:21.634Z,2.67
2022-09-14T10:47:04.406Z,2.63
2022-09-14T10:49:38.039Z,2.37
2022-09-14T10:52:09.593Z,2.93
2022-09-14T10:55:02.660Z,2.70
2022-09-14T10:57:35.272Z,2.30
2022-09-14T11:00:05.329Z,2.53
2022-09-14T11:02:55.929Z,2.60
2022-09-14T11:05:24.976Z,2.50
2022-09-14T11:07:58.884Z,2.47
2022-09-14T11:10:29.380Z,2.40
2022-09-14T11:13:11.135Z,2.70
2022-09-14T11:15:43.093Z,2.50
2022-09-14T11:18:18.781Z,2.30
2022-09-14T11:20:50.274Z,2.40
2022-09-14T11:23:27.491Z,3.03
2022-09-14T11:25:57.284Z,2.10
2022-09-14T11:28:26.570Z,2.13
2022-09-14T11:30:56.932Z,1.93
2022-09-14T11:33:31.254Z,2.37
2022-09-14T11:36:00.634Z,2.30
2022-09-14T11:38:29.899Z,1.70
2022-09-14T11:41:02.129Z,1.97
2022-09-14T11:43:42.428Z,1.73
2022-09-14T11:46:12.462Z,1.50
2022-09-14T11:48:44.386Z,1.77
2022-09-14T11:51:15.639Z,1.87
2022-09-14T11:53:46.245Z,1.97
2022-09-14T11:56:24.785Z,2.27
2022-09-14T11:58:52.548Z,2.00
2022-09-14T12:01:35.584Z,2.03
2022-09-14T12:04:11.990Z,2.10
2022-09-14T12:07:04.647Z,3.73
2022-09-14T12:09:51.505Z,3.27
2022-09-14T12:12:43.371Z,3.63
2022-09-14T12:15:20.341Z,4.43
2022-09-14T12:17:48.096Z,3.53
2022-09-14T12:20:44.484Z,3.17
2022-09-14T12:23:24.221Z,4.87
2022-09-14T12:26:12.283Z,4.90
2022-09-14T12:28:51.778Z,3.73
2022-09-14T12:31:36.106Z,4.13
2022-09-14T12:34:24.652Z,3.10
2022-09-14T12:37:27.906Z,2.87
2022-09-14T12:40:34.159Z,3.57
2022-09-14T12:43:47.456Z,3.67
2022-09-14T12:46:40.813Z,2.90
2022-09-14T12:49:39.991Z,2.50
2022-09-14T12:52:18.797Z,2.83
2022-09-14T12:54:52.439Z,2.50
2022-09-14T12:57:29.365Z,2.73
2022-09-14T13:00:02.636Z,2.87
2022-09-14T13:03:04.998Z,2.83
2022-09-14T13:05:33.776Z,3.20
2022-09-14T13:08:03.113Z,2.43
2022-09-14T13:10:33.193Z,2.27
2022-09-14T13:13:01.697Z,2.40
2022-09-14T13:15:32.514Z,2.10
2022-09-14T13:18:01.395Z,2.00
2022-09-14T13:20:29.289Z,2.30
2022-09-14T13:22:58.988Z,2.07
2022-09-14T13:25:32.365Z,2.13
2022-09-14T13:28:00.449Z,2.97
2022-09-14T13:30:29.242Z,3.43
2022-09-14T13:32:57.685Z,3.10
2022-09-14T13:35:29.827Z,3.50
2022-09-14T13:37:59.512Z,3.30
2022-09-14T13:40:30.092Z,3.23
2022-09-14T13:42:58.504Z,3.30
2022-09-14T13:45:26.136Z,2.90
2022-09-14T13:47:53.916Z,2.87
2022-09-14T13:50:21.941Z,2.80
2022-09-14T13:53:01.731Z,4.10
2022-09-14T13:55:43.286Z,3.00
2022-09-14T13:58:16.021Z,2.20
2022-09-14T14:00:58.210Z,2.60
2022-09-14T14:03:30.892Z,2.50
2022-09-14T14:05:58.696Z,2.30
2022-09-14T14:08:32.872Z,2.30
2022-09-14T14:11:02.972Z,2.07
2022-09-14T14:13:31.603Z,2.50
2022-09-14T14:16:16.099Z,2.97
2022-09-14T14:18:44.173Z,2.50
2022-09-14T14:21:17.593Z,2.57
2022-09-14T14:24:02.839Z,2.77
2022-09-14T14:26:34.474Z,2.60
2022-09-14T14:29:08.604Z,3.17
2022-09-14T14:31:36.322Z,3.20
2022-09-14T14:34:12.303Z,3.40
2022-09-14T14:36:39.996Z,4.20
2022-09-14T14:39:10.101Z,3.60
2022-09-14T14:41:39.060Z,3.43
2022-09-14T14:44:07.274Z,3.60
2022-09-14T14:46:35.053Z,3.50
2022-09-14T14:49:02.837Z,4.40
2022-09-14T14:51:30.432Z,4.60
2022-09-14T14:54:01.469Z,4.43
2022-09-14T14:56:29.613Z,4.30
2022-09-14T14:59:02.081Z,5.00
2022-09-14T15:01:30.318Z,5.13
2022-09-14T15:03:58.466Z,5.17
2022-09-14T15:06:28.108Z,5.23
2022-09-14T15:08:56.192Z,6.17
2022-09-14T15:11:24.373Z,5.63
2022-09-14T15:13:52.004Z,5.80
2022-09-14T15:16:21.188Z,5.90
2022-09-14T15:18:49.302Z,6.63
2022-09-14T15:21:17.526Z,6.00
2022-09-14T15:23:45.738Z,6.27
2022-09-14T15:26:14.132Z,5.70
2022-09-14T15:28:42.223Z,6.10
2022-09-14T15:31:10.356Z,5.33
2022-09-14T15:33:40.020Z,5.43
2022-09-14T15:36:10.602Z,4.63
2022-09-14T15:38:38.893Z,4.97
2022-09-14T15:41:07.192Z,4.90
2022-09-14T15:43:35.153Z,4.03
2022-09-14T15:46:03.723Z,4.47
2022-09-14T15:48:31.902Z,4.20
2022-09-14T15:51:01.745Z,3.97
2022-09-14T15:53:30.195Z,3.70
2022-09-14T15:56:01.965Z,4.63
2022-09-14T15:58:31.493Z,4.57
2022-09-14T16:00:59.591Z,4.47
2022-09-14T16:03:27.818Z,4.87
2022-09-14T16:05:55.760Z,4.20
2022-09-14T16:08:25.001Z,3.60
2022-09-14T16:10:58.560Z,3.23
2022-09-14T16:13:26.421Z,4.00
2022-09-14T16:16:04.214Z,4.67
2022-09-14T16:18:32.091Z,3.93
2022-09-14T16:21:05.598Z,3.20
2022-09-14T16:23:35.370Z,3.57
2022-09-14T16:26:06.620Z,3.90
2022-09-14T16:28:34.826Z,3.87
2022-09-14T16:31:07.093Z,4.00
2022-09-14T16:33:38.663Z,3.43
2022-09-14T16:36:08.243Z,3.60
2022-09-14T16:38:38.573Z,4.07
2022-09-14T16:41:07.154Z,5.50
2022-09-14T16:43:35.460Z,4.07
2022-09-14T16:46:04.996Z,6.10
2022-09-14T16:48:34.735Z,21.13
2022-09-14T16:51:04.212Z,13.03
2022-09-14T16:53:32.771Z,3.50
2022-09-14T16:56:06.447Z,19.03
2022-09-14T16:58:35.657Z,4.63
2022-09-14T17:01:06.998Z,4.60
2022-09-14T17:03:35.492Z,3.23
2022-09-14T17:06:09.888Z,3.83
2022-09-14T17:08:41.868Z,3.30
2022-09-14T17:11:14.285Z,3.10
2022-09-14T17:13:42.987Z,3.00
2022-09-14T17:16:11.841Z,3.20
2022-09-14T17:18:41.019Z,3.90
2022-09-14T17:21:10.274Z,3.13
2022-09-14T17:23:38.072Z,3.10
2022-09-14T17:26:06.884Z,3.33
2022-09-14T17:28:37.013Z,3.30
2022-09-14T17:31:10.752Z,3.33
2022-09-14T17:33:38.525Z,3.23
2022-09-14T17:36:06.757Z,3.43
2022-09-14T17:38:35.710Z,4.77
2022-09-14T17:43:51.355Z,3.80
2022-09-14T17:46:20.451Z,4.70
2022-09-14T17:48:48.131Z,4.27
2022-09-14T17:51:18.075Z,4.80
2022-09-14T17:53:46.221Z,4.80
2022-09-14T17:56:16.026Z,4.97
2022-09-14T17:58:43.868Z,6.17
2022-09-14T18:01:14.225Z,6.40
2022-09-14T18:03:42.925Z,6.80
2022-09-14T18:06:11.949Z,7.07
2022-09-14T18:08:39.931Z,7.20
2022-09-14T18:11:09.569Z,7.13
2022-09-14T18:13:40.755Z,6.93
2022-09-14T18:16:08.617Z,7.63
2022-09-14T18:18:37.842Z,7.97
2022-09-14T18:21:05.856Z,10.63
2022-09-14T18:23:33.700Z,9.17
2022-09-14T18:26:01.761Z,9.57
2022-09-14T18:28:29.480Z,10.80
2022-09-14T18:31:00.753Z,9.70
2022-09-14T18:33:28.448Z,10.43
2022-09-14T18:35:57.571Z,11.40
2022-09-14T18:38:25.289Z,11.80
2022-09-14T18:40:52.886Z,12.03
2022-09-14T18:43:20.688Z,12.50
2022-09-14T18:45:48.391Z,13.03
2022-09-14T18:48:16.270Z,13.97
2022-09-14T18:50:43.982Z,12.70
2022-09-14T18:53:13.106Z,14.97
2022-09-14T18:55:40.796Z,14.23
2022-09-14T18:58:09.004Z,14.00
2022-09-14T19:00:37.096Z,14.83
2022-09-14T19:03:04.926Z,16.43
2022-09-14T19:05:33.886Z,16.27
2022-09-14T19:08:01.698Z,15.27
2022-09-14T19:10:31.407Z,16.63
2022-09-14T19:13:00.345Z,18.27
2022-09-14T19:15:32.073Z,24.17
2022-09-14T19:18:01.008Z,19.53
2022-09-14T19:20:48.770Z,16.87
2022-09-14T19:23:17.062Z,25.33
2022-09-14T19:25:51.122Z,17.30
2022-09-14T19:28:19.083Z,16.90
2022-09-14T19:30:55.357Z,15.40
2022-09-14T19:33:23.572Z,15.80
2022-09-14T19:35:51.182Z,15.87
2022-09-14T19:38:18.906Z,14.90
2022-09-14T19:40:53.655Z,15.37
2022-09-14T19:43:24.910Z,15.93
2022-09-14T19:45:53.740Z,15.60
2022-09-14T19:48:21.394Z,14.30
2022-09-14T19:50:49.240Z,16.97
2022-09-14T19:53:16.903Z,14.67
2022-09-14T19:55:44.741Z,15.63
2022-09-14T19:58:13.844Z,14.93
2022-09-14T20:00:41.516Z,15.20
2022-09-14T20:03:09.427Z,16.00
2022-09-14T20:05:37.103Z,15.20
2022-09-14T20:08:04.765Z,16.20
2022-09-14T20:10:32.366Z,16.47
2022-09-14T20:13:00.082Z,16.53
2022-09-14T20:15:30.882Z,15.90
2022-09-14T20:17:58.645Z,15.90
2022-09-14T20:20:26.370Z,14.93
2022-09-14T20:22:53.978Z,15.77
2022-09-14T20:25:21.608Z,14.50
2022-09-14T20:27:49.525Z,15.30
2022-09-14T20:30:17.587Z,14.70
2022-09-14T20:32:46.685Z,15.50
2022-09-14T20:35:14.520Z,15.97
2022-09-14T20:37:43.634Z,14.90
2022-09-14T20:40:12.129Z,15.60
2022-09-14T20:42:39.814Z,15.57
2022-09-14T20:45:09.164Z,14.70
2022-09-14T20:47:36.922Z,15.23
2022-09-14T20:50:07.011Z,15.03
2022-09-14T20:52:35.077Z,16.03
2022-09-14T20:55:02.783Z,15.47
2022-09-14T20:57:30.458Z,16.33
2022-09-14T20:59:58.141Z,16.23
2022-09-14T21:02:25.847Z,15.63
2022-09-14T21:04:53.556Z,16.70
2022-09-14T21:07:23.049Z,15.13
2022-09-14T21:09:50.797Z,16.90
2022-09-14T21:12:18.402Z,16.87
2022-09-14T21:14:47.908Z,15.93
2022-09-14T21:17:17.442Z,16.97
2022-09-14T21:19:47.102Z,16.67
2022-09-14T21:22:14.745Z,16.40
2022-09-14T21:24:43.819Z,16.07
2022-09-14T21:27:11.445Z,15.70
2022-09-14T21:29:39.079Z,15.40
2022-09-14T21:34:35.450Z,17.27
2022-09-14T21:37:03.013Z,15.80
2022-09-14T21:39:30.648Z,17.87
2022-09-14T21:41:59.933Z,16.77
2022-09-14T21:44:31.222Z,17.30
2022-09-14T21:46:58.861Z,17.50
2022-09-14T21:49:26.614Z,16.40
2022-09-14T21:51:54.209Z,17.07
2022-09-14T21:54:22.215Z,17.43
2022-09-14T21:56:49.859Z,17.70
2022-09-14T21:59:21.153Z,17.87
2022-09-14T22:01:49.135Z,18.10
2022-09-14T22:04:17.997Z,18.07
2022-09-14T22:06:46.115Z,18.10
2022-09-14T22:09:14.084Z,19.90
2022-09-14T22:11:41.669Z,17.93
2022-09-14T22:14:11.703Z,18.77
2022-09-14T22:16:40.852Z,19.57
2022-09-14T22:19:13.326Z,19.83
2022-09-14T22:21:41.034Z,20.03
2022-09-14T22:24:11.321Z,19.33
2022-09-14T22:26:39.467Z,19.07
2022-09-14T22:29:08.677Z,19.33
2022-09-14T22:31:36.857Z,19.77
2022-09-14T22:34:06.212Z,18.93
2022-09-14T22:36:33.930Z,18.30
2022-09-14T22:39:01.765Z,18.50
2022-09-14T22:41:29.745Z,18.27
2022-09-14T22:43:58.503Z,18.90
2022-09-14T22:46:26.224Z,18.27
2022-09-14T22:48:53.978Z,18.97
2022-09-14T22:51:25.481Z,18.90
2022-09-14T22:53:53.316Z,18.93
2022-09-14T22:56:22.293Z,21.00
2022-09-14T22:58:49.989Z,18.77
2022-09-14T23:01:19.433Z,18.87
2022-09-14T23:03:47.108Z,20.33
2022-09-14T23:06:14.744Z,21.43
2022-09-14T23:08:43.869Z,21.77
2022-09-14T23:11:12.620Z,22.67
2022-09-14T23:13:41.037Z,21.20
2022-09-14T23:16:12.568Z,22.13
2022-09-14T23:18:40.366Z,22.77
2022-09-14T23:21:08.109Z,21.67
2022-09-14T23:23:35.788Z,22.57
2022-09-14T23:26:05.390Z,20.57
2022-09-14T23:28:33.147Z,21.87
2022-09-14T23:31:00.981Z,22.80
2022-09-14T23:33:28.973Z,23.97
2022-09-14T23:35:56.721Z,22.90
2022-09-14T23:38:24.682Z,23.23
2022-09-14T23:40:52.291Z,23.00
2022-09-14T23:43:21.360Z,21.10
2022-09-14T23:45:49.027Z,23.13
2022-09-14T23:48:16.726Z,22.73
2022-09-14T23:50:44.601Z,22.67
2022-09-14T23:53:12.306Z,22.80
2022-09-14T23:55:39.900Z,22.50
2022-09-14T23:58:07.479Z,20.83
